No Warnings, Watches, or Advisories

Active alerts


No alerts

Hours of Daylight

14 hrs 49 min 50 sec
of Daylight Today
61.7% Day 38.3% Night Which is
1 min 26 sec Longer
Than Yesterday

South Webcam more information South Webcam


NorthWest Webcam more information NorthWest Webcam


You find our weather info also at:

UK Metoffice

Weather Underground

Mid-Atlantic Weather Network

WeatherlinkIP

Citizen Weather Observer Program (CWOP)

HAMweather, WeatherForYou, PWS Weather



Nearby METAR Reports

   
KDUJ - Du Bois, Pennsylvania, USA
Distance from station: NNE 16 mi
Updated: May 27 2024 10:53 am
Overcast  
Overcast  
   Wind: South 8.1 mph<br />Gust to 8.1 mph
Wind: South 8.1 mph
Gust to 8.1 mph
Temperature: 66.2°F
Dew Point: 62.6°F
Humidity: 88%
Barometer: 29.66 inHg
Clouds: Overcast
Visibility: 10 mi
Cloud details: Few Clouds 2800 ft,
Mostly Cloudy 9500 ft,
Overcast 11000 ft
KDUJ 271453Z AUTO 17007G14KT 10SM FEW028 BKN095 OVC110 19/17 A2966 RMK AO2 RAB16E39 SLP033 6//// T01890167 55006 PNO $
KIDI - Indiana/Stewart, Pennsylvania, USA
Distance from station: SSW 23 mi
Updated: May 27 2024 11:35 am
Overcast  
Overcast  
   Wind: WSW 12.7 mph<br />Gust to 12.7 mph
Wind: WSW 12.7 mph
Gust to 12.7 mph
Temperature: 73.4°F
Dew Point: 66.2°F
Humidity: 78%
Barometer: 29.71 inHg
Clouds: Overcast
Visibility: 10 mi
Cloud details: Partly Cloudy 2700 ft,
Mostly Cloudy 3100 ft,
Overcast 4900 ft
KIDI 271535Z AUTO 24011G21KT 10SM SCT027 BKN031 OVC049 23/19 A2971 RMK A01
KFIG - Clearfield, Pennsylvania, USA
Distance from station: ENE 31 mi
Updated: May 27 2024 11:25 am
Light Rain, Overcast  
Light Rain, Overcast  
   Wind: Calm
Wind: Calm
Temperature: 66.2°F
Dew Point: 64.4°F
Humidity: 94%
Barometer: 29.69 inHg
Clouds: Overcast
Visibility: 10 mi
Cloud details: Partly Cloudy 900 ft,
Mostly Cloudy 1300 ft,
Overcast 5000 ft
KFIG 271525Z AUTO 00000KT 10SM -RA SCT009 BKN013 OVC050 19/18 A2969 RMK AO2 P0000 T01890178
KJST - Johnstown, Pennsylvania, USA
Distance from station: S 44 mi
Updated: May 27 2024 10:54 am
Mostly Cloudy  
Mostly Cloudy  
   Wind: South 9.2 mph
Wind: South 9.2 mph
Temperature: 66.2°F
Dew Point: 62.6°F
Humidity: 88%
Barometer: 29.72 inHg
Clouds: Mostly Cloudy
Visibility: 10 mi
Cloud details: Few Clouds 2600 ft,
Mostly Cloudy 8500 ft,
Mostly Cloudy 10000 ft
KJST 271454Z AUTO 19008KT 10SM FEW026 BKN085 BKN100 19/17 A2972 RMK AO2 RAE01B22E40 SLP052 P0001 60004 T01940172 56003
KPIT - Pittsburgh, Pennsylvania, USA
Distance from station: WSW 74 mi
Updated: May 27 2024 10:51 am
Overcast  
Overcast  
   Wind: SW 13.8 mph<br />Gust to 13.8 mph
Wind: SW 13.8 mph
Gust to 13.8 mph
Temperature: 69.8°F
Dew Point: 59°F
Humidity: 69%
Barometer: 29.65 inHg
Clouds: Overcast
Visibility: 10 mi
Cloud details: Mostly Cloudy 2400 ft,
Overcast 3800 ft
KPIT 271451Z 23012G23KT 10SM BKN024 OVC038 21/15 A2965 RMK AO2 PK WND 23028/1434 SLP042 T02110150 53010
KLBE - Latrobe/Westmorl, Pennsylvania, USA
Distance from station: SSW 52 mi
Updated: May 27 2024 11:45 am
Mostly Cloudy  
Mostly Cloudy  
   Wind: SSW 28.8 mph<br />Gust to 28.8 mph
Wind: SSW 28.8 mph
Gust to 28.8 mph
Temperature: 73.4°F
Dew Point: 62.6°F
Humidity: 69%
Barometer: 29.69 inHg
Clouds: Mostly Cloudy
Visibility: 10 mi
Cloud details: Mostly Cloudy 3100 ft,
Mostly Cloudy 3600 ft,
Mostly Cloudy 4100 ft
KLBE 271545Z 21025G31KT 10SM BKN031 BKN036 BKN041 23/17 A2969
KBTP - Butler Co., Pennsylvania, USA
Distance from station: WSW 52 mi
Updated: May 27 2024 10:56 am
Overcast  
Overcast  
   Wind: SW 12.7 mph<br />Gust to 12.7 mph
Wind: SW 12.7 mph
Gust to 12.7 mph
Temperature: 69.8°F
Dew Point: 62.6°F
Humidity: 78%
Barometer: 29.65 inHg
Clouds: Overcast
Visibility: 10 mi
Cloud details: Mostly Cloudy 2400 ft,
Mostly Cloudy 3100 ft,
Overcast 4000 ft
KBTP 271456Z AUTO 22011G20KT 10SM BKN024 BKN031 OVC040 21/17 A2965 RMK AO2 SLP040 6//// T02060167 53003 PNO $
KUCP - New Castle Muni, Pennsylvania, USA
Distance from station: W 75 mi
Updated: May 27 2024 10:56 am
Mostly Cloudy  
Mostly Cloudy  
   Wind: SSW 8.1 mph<br />Gust to 8.1 mph
Wind: SSW 8.1 mph
Gust to 8.1 mph
Temperature: 69.8°F
Dew Point: 62.6°F
Humidity: 78%
Barometer: 29.63 inHg
Clouds: Mostly Cloudy
Visibility: 10 mi
Cloud details: Mostly Cloudy 2200 ft,
Mostly Cloudy 3100 ft,
Mostly Cloudy 4500 ft
KUCP 271456Z AUTO 21007G16KT 160V230 10SM BKN022 BKN031 BKN045 21/17 A2963 RMK AO2 SLP041 6//// T02110172 53006 PNO $
KFKL - Franklin, Pennsylvania, USA
Distance from station: WNW 54 mi
Updated: May 27 2024 11:03 am
Overcast  
Overcast  
   Wind: SSW 16.1 mph<br />Gust to 16.1 mph
Wind: SSW 16.1 mph
Gust to 16.1 mph
Temperature: 66.2°F
Dew Point: 60.8°F
Humidity: 83%
Barometer: 29.63 inHg
Clouds: Overcast
Visibility: 10 mi
Cloud details: Partly Cloudy 2100 ft,
Mostly Cloudy 2500 ft,
Overcast 4600 ft
KFKL 271503Z AUTO 21014G19KT 10SM SCT021 BKN025 OVC046 19/16 A2963 RMK AO2
KAOO - Altoona, Pennsylvania, USA
Distance from station: SE 57 mi
Updated: May 27 2024 11:37 am
Mostly Cloudy  
Mostly Cloudy  
   Wind: South 6.9 mph
Wind: South 6.9 mph
Temperature: 69.8°F
Dew Point: 62.6°F
Humidity: 78%
Barometer: 29.72 inHg
Clouds: Mostly Cloudy
Visibility: 10 mi
Cloud details: Mostly Cloudy 2100 ft,
Mostly Cloudy 9000 ft
KAOO 271537Z AUTO 17006KT 10SM BKN021 BKN090 21/17 A2972 RMK AO2 T02110172
KUNV - State College, Pennsylvania, USA
Distance from station: E 61 mi
Updated: May 27 2024 10:53 am
Light Rain, Overcast  
Light Rain, Overcast  
   Wind: SSW 3.5 mph
Wind: SSW 3.5 mph
Temperature: 66.2°F
Dew Point: 64.4°F
Humidity: 94%
Barometer: 29.71 inHg
Clouds: Overcast
Visibility: 7 mi
Cloud details: Partly Cloudy 2100 ft,
Overcast 3000 ft
KUNV 271453Z 21003KT 7SM -RA SCT021 OVC030 19/18 A2971
KBFD - Bradford, Pennsylvania, USA
Distance from station: NNE 62 mi
Updated: May 27 2024 11:32 am
Overcast  
Overcast  
   Wind: South 10.4 mph<br />Gust to 10.4 mph
Wind: South 10.4 mph
Gust to 10.4 mph
Temperature: 66.2°F
Dew Point: 64.4°F
Humidity: 94%
Barometer: 29.65 inHg
Clouds: Overcast
Visibility: 10 mi
Cloud details: Few Clouds 900 ft,
Mostly Cloudy 2100 ft,
Overcast 2700 ft
KBFD 271532Z AUTO 18009G25KT 10SM FEW009 BKN021 OVC027 19/18 A2965 RMK AO2 RAB1459E32 P0000 T01940183

Script developed by  Saratoga-weather.org Adapted for the template by  Weerstation Leuven

Equipment we use:

Weather-station
Davis VP2

Weather-program
Cumulus

Weather-server
Dell Latitude e5450

Provider
Host On A Rope

Davis VP2

Cumulus

Dell Latitude e5450

Host On A Rope